»·PEaware :: N24DM KONT-KWMC

N24DM :: KONT-KWMC

FLIGHT INFORMATION

Flight Status: Arrived
Operator: Privately registered:
United States
More flights under this callsign
Pilot: Dave M. (4986)
Aircraft: Cessna 525C Citation CJ4
(C25C)
More flights by this aircraft type
Origin: KONT Ontario Intl
United States
Destination: KWMC Winnemucca Mun
United States
More flights between these airports :: More routes between these airports
Route: POM1 EHF J5 PINNI MCORD
File this flight plan on PilotEdge
Remarks:
Altitude:
(Current/Filed)
43,000ft
Speed:
(Current/Filed)
428kts
Departed: 22-Feb-21 09:13 PM
Arrived: 22-Feb-21 10:29 PM
Distance/Time
Traveled:
411nm/1:16
Distance/Time
To Go:
Arrived

Flight Plot

Page will automatically refresh every two minutes.

Flight plan parsing failed; only flown route is shown


Map Options




Map Legend


Flown Route
Filed Route
Departure Airport
Arrival Airport
Navaid (VOR, NDB)
Fix

Horizontal Profiles

Position Reports

Time Latitude Longitude Heading Altitude Ground
Speed
22-Feb-21 20:55 34.052179 -117.600760 44 928ft 0kts
22-Feb-21 20:56 34.052179 -117.600760 44 928ft 0kts
22-Feb-21 20:57 34.052179 -117.600760 44 928ft 0kts
22-Feb-21 20:58 34.052179 -117.600760 44 928ft 0kts
22-Feb-21 20:59 34.052179 -117.600760 44 928ft 0kts
22-Feb-21 21:00 34.052179 -117.600760 44 928ft 0kts
22-Feb-21 21:01 34.052179 -117.600760 44 928ft 0kts
22-Feb-21 21:02 34.052179 -117.600760 44 928ft 0kts
22-Feb-21 21:03 34.052179 -117.600760 44 928ft 0kts
22-Feb-21 21:04 34.052179 -117.600760 44 928ft 0kts
22-Feb-21 21:05 34.052179 -117.600760 44 928ft 0kts
22-Feb-21 21:06 34.052179 -117.600760 44 928ft 0kts
22-Feb-21 21:07 34.052870 -117.601622 287 930ft 8kts
22-Feb-21 21:08 34.053865 -117.599760 90 933ft 18kts
22-Feb-21 21:09 34.053874 -117.594099 89 933ft 20kts
22-Feb-21 21:10 34.053869 -117.586017 90 929ft 26kts
22-Feb-21 21:11 34.054420 -117.582704 2 929ft 8kts
22-Feb-21 21:12 34.055036 -117.592252 270 966ft 143kts
22-Feb-21 21:13 34.056173 -117.659977 273 4541ft 220kts
22-Feb-21 21:14 34.060259 -117.736228 295 6021ft 243kts
22-Feb-21 21:15 34.093843 -117.812414 310 8403ft 248kts
22-Feb-21 21:16 34.140017 -117.876868 310 10250ft 257kts
22-Feb-21 21:17 34.186107 -117.944556 309 12104ft 265kts
22-Feb-21 21:18 34.233404 -118.014189 309 13714ft 275kts
22-Feb-21 21:19 34.285682 -118.090728 309 17554ft 305kts
22-Feb-21 21:20 34.341122 -118.172233 309 21238ft 322kts
22-Feb-21 21:21 34.401878 -118.262089 309 22951ft 379kts
22-Feb-21 21:22 34.473635 -118.368355 309 23365ft 422kts
22-Feb-21 21:23 34.551355 -118.475716 327 24752ft 423kts
22-Feb-21 21:24 34.655442 -118.541243 333 26411ft 422kts
22-Feb-21 21:25 34.757782 -118.610176 334 28242ft 420kts
22-Feb-21 21:26 34.859953 -118.678100 334 30365ft 415kts
22-Feb-21 21:27 34.960823 -118.745428 335 32423ft 413kts
22-Feb-21 21:28 35.061807 -118.812849 335 34410ft 414kts
22-Feb-21 21:29 35.162595 -118.880415 335 36494ft 411kts
22-Feb-21 21:30 35.262305 -118.947482 334 38542ft 407kts
22-Feb-21 21:31 35.361126 -119.014112 334 40378ft 403kts
22-Feb-21 21:32 35.458728 -119.080111 333 42055ft 399kts
22-Feb-21 21:33 35.564477 -119.107101 358 43027ft 398kts
22-Feb-21 21:34 35.678917 -119.123236 356 43099ft 430kts
22-Feb-21 21:35 35.800133 -119.138721 355 43094ft 432kts
22-Feb-21 21:36 35.917972 -119.154216 355 43087ft 422kts
22-Feb-21 21:37 36.035094 -119.169721 355 43103ft 432kts
22-Feb-21 21:38 36.155829 -119.185768 355 43104ft 432kts
22-Feb-21 21:39 36.273456 -119.201502 355 43093ft 419kts
22-Feb-21 21:40 36.387632 -119.216765 355 43101ft 407kts
22-Feb-21 21:41 36.499025 -119.231705 354 43092ft 398kts
22-Feb-21 21:43 36.607871 -119.246340 354 43139ft 388kts
22-Feb-21 21:44 36.714621 -119.260743 354 43153ft 382kts
22-Feb-21 21:45 36.819332 -119.267348 14 43160ft 374kts
22-Feb-21 21:46 36.917922 -119.228982 16 43144ft 369kts
22-Feb-21 21:47 37.016504 -119.195088 16 43152ft 364kts
22-Feb-21 21:48 37.113220 -119.160441 16 43182ft 360kts
22-Feb-21 21:49 37.209363 -119.126249 16 43194ft 356kts
22-Feb-21 21:50 37.304164 -119.092566 15 43242ft 352kts
22-Feb-21 21:51 37.397675 -119.059157 16 43247ft 349kts
22-Feb-21 21:52 37.490947 -119.025748 15 43248ft 347kts
22-Feb-21 21:53 37.583648 -118.992705 15 43248ft 345kts
22-Feb-21 21:54 37.675861 -118.959574 15 43248ft 348kts
22-Feb-21 21:55 37.773502 -118.924386 15 43266ft 380kts
22-Feb-21 21:56 37.878632 -118.886393 15 43267ft 403kts
22-Feb-21 21:57 37.988733 -118.846613 15 43257ft 419kts
22-Feb-21 21:58 38.102229 -118.805358 15 43251ft 429kts
22-Feb-21 21:59 38.218258 -118.763005 15 43202ft 436kts
22-Feb-21 22:00 38.335480 -118.719994 15 43196ft 438kts
22-Feb-21 22:01 38.450984 -118.677607 15 43179ft 428kts
22-Feb-21 22:02 38.564526 -118.635745 15 43180ft 420kts
22-Feb-21 22:03 38.675692 -118.594622 15 43191ft 414kts
22-Feb-21 22:04 38.785801 -118.553763 14 43185ft 409kts
22-Feb-21 22:05 38.896662 -118.512521 14 43191ft 419kts
22-Feb-21 22:06 39.009612 -118.470340 14 43198ft 427kts
22-Feb-21 22:06 39.105499 -118.434412 14 43059ft 436kts
22-Feb-21 22:08 39.241755 -118.383152 14 40562ft 429kts
22-Feb-21 22:09 39.353862 -118.340711 14 38367ft 412kts
22-Feb-21 22:09 39.444461 -118.306052 14 36522ft 400kts
22-Feb-21 22:11 39.565830 -118.260043 14 33956ft 382kts
22-Feb-21 22:11 39.649660 -118.228810 14 32158ft 372kts
22-Feb-21 22:12 39.748036 -118.191383 14 29878ft 376kts
22-Feb-21 22:13 39.850416 -118.151020 12 27617ft 391kts
22-Feb-21 22:15 39.973290 -118.103009 14 25178ft 398kts
22-Feb-21 22:16 40.080426 -118.060601 14 24256ft 407kts
22-Feb-21 22:16 40.171106 -118.027152 13 24201ft 406kts
22-Feb-21 22:17 40.281452 -117.991937 9 22715ft 399kts
22-Feb-21 22:18 40.386691 -117.961230 7 20707ft 382kts
22-Feb-21 22:19 40.489525 -117.929926 11 18703ft 375kts
22-Feb-21 22:20 40.589715 -117.898595 9 16737ft 366kts
22-Feb-21 22:21 40.683861 -117.871027 8 14605ft 320kts
22-Feb-21 22:22 40.766865 -117.854216 2 12273ft 289kts
22-Feb-21 22:23 40.844486 -117.850256 6 9270ft 267kts
22-Feb-21 22:24 40.906267 -117.850846 347 7445ft 180kts
22-Feb-21 22:25 40.944754 -117.848727 55 6056ft 113kts
22-Feb-21 22:26 40.928149 -117.824899 159 4866ft 99kts
22-Feb-21 22:27 40.900945 -117.811516 160 4303ft 87kts
22-Feb-21 22:28 40.897410 -117.806951 69 4305ft 7kts

Navigation Log

Ident Type
Flight plan parsing failed, navigation log unavailable